deformed-offering
Saratoga-Weather Station Historical Data
 
Daily Summary for February 29, 2024 Units:  English    Metric   Both
Daily Weekly Monthly Yearly
  Current: High: Low: Average:
Temperature: 58.2 °F 60.7 °F 43.2 °F 51.6 °F
Dew Point: 54.1 °F 55.1 °F 40.1 °F 47.5 °F
Humidity: 86.2% 93.7% 73.8% 86%
Wind Speed: 2.3mph 7.3mph 0mph 2.7mph
Wind Gust: 12mph 16.1mph - -
WindSSE - - SSE
Pressure: 29.98 in 30.03 in 29.98 in -
Precipitation: 0.04 in      
 
 
Tabular Data for February 29, 2024
Time Temperature Dew Point Pressure Wind Wind Speed Wind Gust Humidity Rainfall Rate (Hourly) solar
00:09 45.7 °F 41 °F 30.01 in West 0.8 mph 2.3 mph 83.6% 0.00 in 0 W/m2
00:14 45.7 °F 41.1 °F 30.01 in West 0.4 mph 2.3 mph 84% 0.00 in 0 W/m2
00:19 45.7 °F 41.1 °F 30.01 in West 0.7 mph 2.3 mph 84% 0.00 in 0 W/m2
00:24 45.6 °F 41 °F 30.01 in West 0.5 mph 2.3 mph 84% 0.00 in 0 W/m2
00:29 45.5 °F 40.9 °F 30.01 in West 0.1 mph 2 mph 84% 0.00 in 0 W/m2
00:34 45.5 °F 40.9 °F 30.01 in West 0.3 mph 1.2 mph 84% 0.00 in 0 W/m2
00:39 45.5 °F 40.9 °F 30.01 in West 0.8 mph 2.3 mph 84% 0.00 in 0 W/m2
00:44 45.4 °F 41.2 °F 30.01 in West 0.5 mph 2.3 mph 84.9% 0.00 in 0 W/m2
00:49 45.3 °F 41 °F 30.01 in West 0.1 mph 2 mph 84.7% 0.00 in 0 W/m2
00:54 45.2 °F 41 °F 30.01 in Calm     85% 0.00 in 0 W/m2
00:59 45.1 °F 40.8 °F 30.01 in Calm     84.6% 0.00 in 0 W/m2
01:04 45 °F 40.8 °F 30.01 in Calm     84.7% 0.00 in 0 W/m2
01:09 44.9 °F 40.6 °F 30.01 in Calm     84.8% 0.00 in 0 W/m2
01:14 44.8 °F 40.6 °F 30.01 in Calm     85% 0.00 in 0 W/m2
01:19 44.7 °F 40.5 °F 30.01 in Calm     85% 0.00 in 0 W/m2
01:24 44.6 °F 40.4 °F 30.01 in Calm     85% 0.00 in 0 W/m2
01:29 44.5 °F 40.4 °F 30.01 in West 0.2 mph 1.2 mph 85.3% 0.00 in 0 W/m2
01:34 44.3 °F 40.4 °F 30.01 in West 0.1 mph 1.2 mph 86% 0.00 in 0 W/m2
01:39 44.2 °F 40.3 °F 30.01 in West 0.1 mph 1.2 mph 86% 0.00 in 0 W/m2
01:44 44.2 °F 40.3 °F 30.01 in Calm   1.2 mph 86% 0.00 in 0 W/m2
01:49 44.2 °F 40.3 °F 30.00 in West 0.2 mph 1.2 mph 86% 0.00 in 0 W/m2
01:54 44.1 °F 40.2 °F 30.00 in West 0.5 mph 1.2 mph 86.1% 0.00 in 0 W/m2
01:59 44.1 °F 40.5 °F 30.00 in West 0.5 mph 2.3 mph 87% 0.00 in 0 W/m2
02:04 44 °F 40.4 °F 30.00 in West 0.1 mph 2 mph 87% 0.00 in 0 W/m2
02:09 43.9 °F 40.3 °F 30.00 in West 0.2 mph 1.2 mph 87% 0.00 in 0 W/m2
02:14 43.9 °F 40.3 °F 30.00 in Calm   1.2 mph 87% 0.00 in 0 W/m2
02:19 43.8 °F 40.2 °F 30.00 in West 0.4 mph 2.3 mph 87% 0.00 in 0 W/m2
02:24 43.7 °F 40.4 °F 30.00 in West 0.4 mph 2.3 mph 87.9% 0.00 in 0 W/m2
02:29 43.7 °F 40.4 °F 30.00 in West 0.2 mph 1.2 mph 88% 0.00 in 0 W/m2
02:34 43.6 °F 40.3 °F 30.00 in West 0.2 mph 2.3 mph 88% 0.00 in 0 W/m2
02:39 43.5 °F 40.2 °F 29.99 in West 0.1 mph 2 mph 88% 0.00 in 0 W/m2
02:44 43.5 °F 40.2 °F 29.99 in West 0.7 mph 2.3 mph 88% 0.00 in 0 W/m2
02:49 43.5 °F 40.2 °F 29.99 in West 0.2 mph 2 mph 88% 0.00 in 0 W/m2
02:54 43.4 °F 40.1 °F 29.99 in West 0.4 mph 2 mph 88% 0.00 in 0 W/m2
02:59 43.4 °F 40.3 °F 29.99 in West 0.9 mph 3.5 mph 88.9% 0.00 in 0 W/m2
03:04 43.5 °F 40.5 °F 29.99 in WSW 0.3 mph 3 mph 89% 0.00 in 0 W/m2
03:09 43.4 °F 40.4 °F 29.99 in WSW 0.2 mph 2 mph 89% 0.00 in 0 W/m2
03:14 43.4 °F 40.4 °F 29.99 in WSW 0.3 mph 1.2 mph 89% 0.00 in 0 W/m2
03:19 43.4 °F 40.4 °F 29.99 in WSW 0.6 mph 2.3 mph 89% 0.00 in 0 W/m2
03:24 43.4 °F 40.4 °F 29.99 in WSW 0.4 mph 2.3 mph 89% 0.00 in 0 W/m2
03:29 43.3 °F 40.3 °F 29.99 in WSW 0.1 mph 2 mph 89% 0.00 in 0 W/m2
03:34 43.3 °F 40.3 °F 30.00 in WSW 0.1 mph 1.2 mph 89% 0.00 in 0 W/m2
03:39 43.3 °F 40.3 °F 30.00 in Calm   1.2 mph 89% 0.00 in 0 W/m2
03:44 43.3 °F 40.3 °F 30.00 in WSW 0.1 mph 1.2 mph 89% 0.00 in 0 W/m2
03:49 43.2 °F 40.2 °F 30.00 in WSW 0.6 mph 2.3 mph 89% 0.00 in 0 W/m2
03:54 43.2 °F 40.2 °F 30.00 in WSW 0.6 mph 2.3 mph 89% 0.00 in 0 W/m2
03:59 43.2 °F 40.4 °F 30.00 in South 1.1 mph 3.5 mph 89.8% 0.00 in 0 W/m2
04:04 43.2 °F 40.5 °F 30.00 in SE 0.4 mph 3 mph 90% 0.00 in 0 W/m2
04:09 43.3 °F 40.6 °F 30.00 in SE 0.1 mph 3 mph 90% 0.00 in 0 W/m2
04:14 43.3 °F 40.6 °F 30.00 in SSE 0.9 mph 5 mph 90% 0.00 in 0 W/m2
04:19 43.3 °F 40.6 °F 30.00 in SSE 0.5 mph 5 mph 90% 0.00 in 0 W/m2
04:24 43.5 °F 40.9 °F 30.00 in SE 0.7 mph 3.5 mph 90.4% 0.00 in 0 W/m2
04:29 43.7 °F 41.2 °F 30.00 in South 1.7 mph 6 mph 91% 0.00 in 0 W/m2
04:34 44.2 °F 41.9 °F 29.99 in SE 2.5 mph 6 mph 91.7% 0.00 in 0 W/m2
04:39 44.9 °F 42.7 °F 29.99 in East 4.1 mph 7 mph 92.2% 0.00 in 0 W/m2
04:44 45.2 °F 43.2 °F 29.99 in ESE 4.1 mph 9.2 mph 92.6% 0.00 in 0 W/m2
04:49 45.8 °F 44 °F 29.99 in East 3.5 mph 9 mph 93.2% 0.00 in 0 W/m2
04:54 46.5 °F 44.8 °F 29.99 in ESE 2.8 mph 8 mph 93.7% 0.00 in 0 W/m2
04:59 47 °F 45.1 °F 29.99 in ESE 2.3 mph 7 mph 93% 0.00 in 0 W/m2
05:04 47.1 °F 45.2 °F 29.99 in East 3.8 mph 7 mph 93% 0.00 in 0 W/m2
05:09 47.3 °F 45.4 °F 30.00 in East 4.3 mph 8.1 mph 93% 0.00 in 0 W/m2
05:14 47.4 °F 45.5 °F 30.00 in East 2.5 mph 8 mph 93% 0.00 in 0 W/m2
05:19 47.6 °F 45.7 °F 30.00 in East 1 mph 6 mph 93% 0.00 in 0 W/m2
05:24 47.7 °F 45.8 °F 30.00 in ESE 2.6 mph 7 mph 93% 0.00 in 0 W/m2
05:29 47.9 °F 46 °F 30.00 in ESE 2.2 mph 10.4 mph 93% 0.00 in 0 W/m2
05:34 48.1 °F 46 °F 29.99 in SE 2.8 mph 10 mph 92.3% 0.00 in 0 W/m2
05:39 48.3 °F 46.1 °F 29.99 in SE 2.3 mph 7 mph 92% 0.00 in 0 W/m2
05:44 48.5 °F 46.3 °F 30.00 in SE 2.1 mph 7 mph 92% 0.00 in 0 W/m2
05:49 48.6 °F 46.4 °F 29.99 in SE 3.3 mph 8.1 mph 92% 0.00 in 0 W/m2
05:54 48.8 °F 46.6 °F 30.00 in SE 3.2 mph 8.1 mph 92% 0.00 in 0 W/m2
05:59 48.9 °F 46.7 °F 30.00 in SE 3.5 mph 8 mph 92% 0.00 in 0 W/m2
06:04 49.1 °F 46.9 °F 30.00 in SSE 3.4 mph 8.1 mph 92% 0.00 in 0 W/m2
06:09 49.2 °F 46.9 °F 30.00 in SE 4 mph 12 mph 91.6% 0.00 in 0 W/m2
06:14 49.3 °F 47 °F 30.01 in SE 2.8 mph 12 mph 91.5% 0.00 in 0 W/m2
06:19 49.4 °F 46.9 °F 30.00 in SE 3.1 mph 10.4 mph 91% 0.00 in 0 W/m2
06:24 49.5 °F 47 °F 30.00 in SE 4.7 mph 12 mph 91% 0.00 in 0 W/m2
06:29 49.6 °F 47.1 °F 30.01 in SE 3.7 mph 12 mph 91% 0.00 in 0 W/m2
06:34 49.6 °F 47.1 °F 30.01 in ESE 2.4 mph 12 mph 91% 0.00 in 0 W/m2
06:39 49.7 °F 47.2 °F 30.01 in ESE 4 mph 10.4 mph 91% 0.00 in 0 W/m2
06:44 49.8 °F 47.3 °F 30.01 in ESE 3.5 mph 10 mph 91% 0.00 in 5 W/m2
06:49 49.8 °F 47.3 °F 30.01 in ESE 4.2 mph 11.5 mph 91% 0.00 in 9 W/m2
06:54 49.9 °F 47.4 °F 30.01 in ESE 3.1 mph 12 mph 91% 0.00 in 9 W/m2
06:59 50 °F 47.5 °F 30.01 in ESE 4.3 mph 10.4 mph 91% 0.00 in 9 W/m2
07:04 50.1 °F 47.6 °F 30.01 in East 5.5 mph 13 mph 91% 0.00 in 11 W/m2
07:09 50.2 °F 47.7 °F 30.01 in ESE 4.8 mph 13 mph 91% 0.00 in 16 W/m2
07:14 50.3 °F 47.8 °F 30.01 in East 4.9 mph 12 mph 91% 0.00 in 19 W/m2
07:19 50.4 °F 47.9 °F 30.01 in East 6.8 mph 12 mph 91% 0.00 in 30 W/m2
07:24 50.5 °F 48 °F 30.01 in East 5.1 mph 12 mph 91% 0.00 in 42 W/m2
07:29 50.7 °F 48.2 °F 30.01 in East 6.2 mph 12 mph 91% 0.00 in 62 W/m2
07:34 50.8 °F 48.3 °F 30.01 in East 6 mph 12 mph 91% 0.00 in 79 W/m2
07:39 51 °F 48.3 °F 30.01 in East 7.1 mph 13 mph 90.3% 0.00 in 79 W/m2
07:44 51.1 °F 48.3 °F 30.01 in East 6.6 mph 13 mph 90% 0.00 in 49 W/m2
07:49 51.3 °F 48.5 °F 30.01 in East 7.3 mph 13 mph 90% 0.00 in 58 W/m2
07:54 51.4 °F 48.6 °F 30.01 in East 6.9 mph 13 mph 90% 0.00 in 74 W/m2
07:59 51.6 °F 48.8 °F 30.01 in East 6.4 mph 12 mph 90% 0.00 in 81 W/m2
08:04 51.7 °F 48.9 °F 30.01 in East 5.1 mph 13 mph 90% 0.00 in 56 W/m2
08:09 51.8 °F 48.7 °F 30.01 in East 7.1 mph 14 mph 89.1% 0.00 in 49 W/m2
08:14 51.9 °F 48.8 °F 30.01 in East 6.4 mph 14 mph 89% 0.00 in 55 W/m2
08:19 52 °F 48.9 °F 30.01 in East 5 mph 12 mph 89% 0.00 in 63 W/m2
08:24 52.2 °F 49.1 °F 30.01 in East 5.9 mph 13 mph 89% 0.00 in 63 W/m2
08:29 52.3 °F 49.2 °F 30.01 in ESE 5.2 mph 13 mph 89% 0.00 in 51 W/m2
08:34 52.4 °F 49.3 °F 30.01 in East 5.4 mph 13 mph 89% 0.00 in 53 W/m2
08:39 52.5 °F 49.4 °F 30.01 in East 4.3 mph 12 mph 89% 0.00 in 39 W/m2
08:44 52.6 °F 49.4 °F 30.01 in East 5.8 mph 13 mph 89% 0.00 in 55 W/m2
08:49 52.6 °F 49.4 °F 30.01 in East 5.9 mph 13 mph 89% 0.00 in 55 W/m2
08:54 52.7 °F 49.6 °F 30.01 in ENE 4.7 mph 12 mph 89.3% 0.00 in 104 W/m2
08:59 52.8 °F 49.9 °F 30.01 in East 4.8 mph 10 mph 90% 0.00 in 125 W/m2
09:04 52.9 °F 50 °F 30.01 in East 6.2 mph 12 mph 90% 0.00 in 121 W/m2
09:09 53.1 °F 50.2 °F 30.01 in ENE 2.7 mph 12 mph 90% 0.00 in 137 W/m2
09:14 53.2 °F 50.3 °F 30.01 in ENE 5.2 mph 11.5 mph 90% 0.00 in 155 W/m2
09:19 53.3 °F 50.4 °F 30.01 in East 4 mph 12 mph 90% 0.00 in 171 W/m2
09:24 53.5 °F 50.7 °F 30.01 in ESE 4.6 mph 12 mph 90.2% 0.00 in 202 W/m2
09:29 53.8 °F 50.8 °F 30.01 in ESE 4.6 mph 12 mph 89.7% 0.00 in 234 W/m2
09:34 54.1 °F 50.9 °F 30.01 in ESE 3.7 mph 11.5 mph 88.9% 0.00 in 234 W/m2
09:39 54.5 °F 50.6 °F 30.01 in SE 5.1 mph 14 mph 86.7% 0.00 in 269 W/m2
09:44 54.9 °F 50.2 °F 30.01 in SE 2.9 mph 14 mph 84.3% 0.00 in 290 W/m2
09:49 55.2 °F 50.5 °F 30.01 in SSE 2.8 mph 8 mph 84.2% 0.00 in 714 W/m2
09:54 55.7 °F 50.3 °F 30.01 in SSE 3.7 mph 12 mph 81.9% 0.00 in 725 W/m2
09:59 56.3 °F 50.3 °F 30.01 in South 2.7 mph 12 mph 80.3% 0.00 in 725 W/m2
10:04 56.7 °F 50.5 °F 30.01 in SW 3.4 mph 12 mph 79.7% 0.00 in 653 W/m2
10:09 57.2 °F 50.2 °F 30.02 in South 3.6 mph 12 mph 77.4% 0.00 in 306 W/m2
10:14 57.5 °F 50.4 °F 30.02 in South 1.7 mph 10 mph 77.2% 0.00 in 727 W/m2
10:19 57.9 °F 50.6 °F 30.02 in SE 2 mph 8.1 mph 76.6% 0.00 in 727 W/m2
10:24 58.3 °F 51 °F 30.02 in SE 3.6 mph 10.4 mph 76.5% 0.00 in 727 W/m2
10:29 58.7 °F 51.4 °F 30.03 in SSE 3.2 mph 13 mph 76.6% 0.00 in 653 W/m2
10:34 58.9 °F 51.4 °F 30.03 in ESE 3.1 mph 13 mph 76.2% 0.00 in 783 W/m2
10:39 59.2 °F 51.4 °F 30.03 in South 3.2 mph 8.1 mph 75.4% 0.00 in 783 W/m2
10:44 59.4 °F 51 °F 30.03 in SSE 3.7 mph 12 mph 73.8% 0.00 in 743 W/m2
10:49 59.6 °F 51.4 °F 30.03 in South 3.2 mph 12 mph 74.1% 0.00 in 517 W/m2
10:54 59.8 °F 52.4 °F 30.02 in ESE 3.4 mph 8.1 mph 76.5% 0.00 in 507 W/m2
10:59 59.9 °F 53 °F 30.03 in SSE 2.8 mph 8 mph 77.9% 0.00 in 352 W/m2
11:04 59.9 °F 53.3 °F 30.03 in SSE 2.7 mph 8 mph 78.9% 0.00 in 535 W/m2
11:09 59.9 °F 53.5 °F 30.02 in SE 4.1 mph 11 mph 79.3% 0.00 in 790 W/m2
11:14 59.9 °F 53.5 °F 30.02 in SSE 4.3 mph 12 mph 79.2% 0.00 in 790 W/m2
11:19 59.9 °F 53 °F 30.02 in South 2.5 mph 10.4 mph 78.1% 0.00 in 691 W/m2
11:24 60 °F 53.1 °F 30.02 in SE 4.1 mph 12 mph 77.8% 0.00 in 735 W/m2
11:29 60.2 °F 53.1 °F 30.02 in SSE 3.9 mph 13 mph 77.3% 0.00 in 762 W/m2
11:34 59.9 °F 52.4 °F 30.02 in South 3.2 mph 13 mph 76.4% 0.00 in 611 W/m2
11:39 59.9 °F 53.2 °F 30.01 in SSE 2.2 mph 12 mph 78.6% 0.00 in 776 W/m2
11:44 60 °F 53.3 °F 30.01 in SSE 2.9 mph 11 mph 78.5% 0.00 in 725 W/m2
11:49 60.1 °F 53.1 °F 30.01 in SSE 2.7 mph 12 mph 77.6% 0.00 in 565 W/m2
11:54 60.3 °F 53.5 °F 30.02 in SSE 3.5 mph 10.4 mph 78.3% 0.00 in 632 W/m2
11:59 60.4 °F 53.5 °F 30.01 in SSE 4.2 mph 10.4 mph 77.9% 0.00 in 676 W/m2
12:04 60.5 °F 53.5 °F 30.01 in SSE 3.4 mph 13 mph 77.8% 0.00 in 676 W/m2
12:09 60.6 °F 54.2 °F 30.01 in SE 2.9 mph 13 mph 79.3% 0.00 in 757 W/m2
12:14 60.7 °F 54.3 °F 30.01 in SSE 4.3 mph 11.5 mph 79.6% 0.00 in 757 W/m2
12:19 60.6 °F 54.2 °F 30.01 in SSE 3.1 mph 12 mph 79.6% 0.00 in 795 W/m2
12:24 60.3 °F 53.8 °F 30.01 in SSE 2.6 mph 12 mph 78.9% 0.00 in 852 W/m2
12:29 60.1 °F 53.3 °F 30.01 in SSW 3.1 mph 11 mph 78% 0.00 in 852 W/m2
12:34 60.2 °F 53.7 °F 30.01 in SSE 4.3 mph 12 mph 78.9% 0.00 in 637 W/m2
12:39 60.3 °F 53.9 °F 30.01 in SSW 3.6 mph 12 mph 79.5% 0.00 in 637 W/m2
12:44 60.2 °F 54.2 °F 30.01 in SSE 3 mph 12 mph 80.4% 0.00 in 512 W/m2
12:49 60.2 °F 54.4 °F 30.01 in SSW 3.6 mph 11.5 mph 81.2% 0.00 in 461 W/m2
12:54 59.9 °F 54.4 °F 30.00 in SSE 2.3 mph 12 mph 81.9% 0.00 in 707 W/m2
12:59 60.1 °F 55.1 °F 30.01 in SSE 2 mph 7 mph 83.6% 0.00 in 662 W/m2
13:04 60.1 °F 55.1 °F 30.01 in South 4.1 mph 11.5 mph 83.5% 0.00 in 662 W/m2
13:09 60.2 °F 54.8 °F 30.00 in SSE 2.8 mph 12 mph 82.4% 0.00 in 662 W/m2
13:14 60.2 °F 54.4 °F 30.00 in SW 3.2 mph 12 mph 81.2% 0.00 in 794 W/m2
13:19 60.3 °F 54.3 °F 30.00 in South 2.8 mph 12 mph 80.7% 0.00 in 794 W/m2
13:24 60.5 °F 54.3 °F 30.00 in SSE 3.7 mph 10 mph 80.2% 0.00 in 570 W/m2
13:29 60.2 °F 53.5 °F 30.00 in South 4.8 mph 12 mph 78.4% 0.00 in 477 W/m2
13:34 59.9 °F 53.1 °F 30.00 in South 4.5 mph 12 mph 78.4% 0.00 in 477 W/m2
13:39 59.8 °F 53.5 °F 30.00 in South 3.3 mph 16.1 mph 79.7% 0.00 in 544 W/m2
13:44 59.6 °F 53.8 °F 30.00 in South 2.3 mph 16 mph 81% 0.00 in 364 W/m2
13:49 59.6 °F 54.3 °F 30.00 in SE 3.7 mph 16.1 mph 82.8% 0.00 in 422 W/m2
13:54 59.5 °F 54.4 °F 29.99 in SE 3.1 mph 16 mph 83.1% 0.00 in 371 W/m2
13:59 59.4 °F 54.2 °F 29.99 in SE 3.4 mph 13 mph 83% 0.01 in 470 W/m2
14:04 59.4 °F 54.5 °F 29.99 in SSE 1.8 mph 13 mph 83.7% 0.01 in 426 W/m2
14:09 59.1 °F 53.9 °F 29.98 in South 2.1 mph 7 mph 83.2% 0.01 in 501 W/m2
14:14 58.9 °F 54 °F 29.99 in SE 1.8 mph 7 mph 83.7% 0.01 in 273 W/m2
14:19 58.9 °F 54.2 °F 29.99 in South 4.2 mph 12 mph 84.3% 0.01 in 253 W/m2
14:24 58.7 °F 53.9 °F 29.99 in South 4.4 mph 13 mph 84% 0.01 in 417 W/m2
14:29 58.7 °F 53.9 °F 29.98 in South 1.8 mph 13 mph 84.2% 0.01 in 417 W/m2
14:34 58.5 °F 53.5 °F 29.99 in South 2.7 mph 10.4 mph 83.3% 0.02 in 322 W/m2
14:39 58.5 °F 53.6 °F 29.98 in SSE 2 mph 11 mph 83.6% 0.02 in 322 W/m2
14:44 58.4 °F 53.8 °F 29.98 in ESE 2.1 mph 12 mph 84.6% 0.03 in 227 W/m2
14:49 58.4 °F 54 °F 29.98 in SSE 2.3 mph 7 mph 85.4% 0.04 in 320 W/m2
14:54 58.3 °F 54.1 °F 29.98 in SSE 2.7 mph 11.5 mph 86% 0.04 in 303 W/m2
14:58 58.2 °F 54.1 °F 29.98 in SSE 2.3 mph 12 mph 86.2% 0.04 in 387 W/m2
Saratoga, California, USA
Compliments of Weather Underground - 4 mb

WU-history PHP script courtesy of Juneau County Weather and modified for WU/TWC API use by Saratoga-weather.org

This script set is available on GitHub.

deformed-offering